Austwell, Texas
Current Conditions -  °F | °C
As of 10:55 PM on Friday 28 Nov 2014 (Local Time) from KPKV Reporting Station
Clear Clear  
Wind Chill: 61°   Ceiling: Unl
Heat Index: 61°   Visibility: 10mi
Dew Point: 59°   Wind: 7mph
Humidity: 93%   Direction: 180°S
Pressure: 30.14"   Gusts: NA
Location:  28.39°N, 96.84°W
Report Text: KPKV 290455Z AUTO 18006KT 10SM CLR 16/15 A3014 RMK AO2 T01610150
Loading
Personal Weather Stations






























Interactive Weather Map New forecast layout! Learn more

10-Day Weather Forecast

Advertisements
Track Severe Weather on mobile